createdAt,value
2024-02-03T00:00:21.308Z,33.23
2024-02-03T00:06:23.755Z,34.50
2024-02-03T00:12:30.548Z,33.30
2024-02-03T00:18:33.391Z,28.37
2024-02-03T00:24:36.181Z,27.23
2024-02-03T00:30:38.605Z,34.87
2024-02-03T00:36:41.093Z,24.73
2024-02-03T00:42:44.584Z,30.67
2024-02-03T00:48:47.191Z,35.17
2024-02-03T00:54:49.659Z,33.87
2024-02-03T01:00:52.105Z,30.63
2024-02-03T01:06:57.523Z,27.23
2024-02-03T01:12:59.854Z,24.60
2024-02-03T01:19:01.997Z,35.37
2024-02-03T01:25:04.788Z,30.40
2024-02-03T01:31:07.301Z,33.27
2024-02-03T01:37:09.708Z,29.60
2024-02-03T01:43:15.147Z,34.03
2024-02-03T01:49:17.843Z,30.43
2024-02-03T01:55:21.301Z,26.23
2024-02-03T02:01:25.617Z,26.33
2024-02-03T02:07:31.040Z,24.73
2024-02-03T02:13:34.510Z,19.63
2024-02-03T02:19:37.114Z,20.53
2024-02-03T02:25:39.436Z,24.03
2024-02-03T02:31:41.897Z,16.77
2024-02-03T02:37:44.375Z,19.33
2024-02-03T02:43:46.794Z,19.67
2024-02-03T02:49:49.344Z,18.40
2024-02-03T02:55:54.787Z,20.30
2024-02-03T03:01:58.368Z,16.30
2024-02-03T03:08:00.786Z,16.40
2024-02-03T03:14:03.174Z,13.37
2024-02-03T03:20:06.709Z,16.10
2024-02-03T03:26:09.150Z,16.87
2024-02-03T03:32:11.183Z,15.90
2024-02-03T03:38:14.071Z,12.00
2024-02-03T03:44:16.563Z,16.27
2024-02-03T03:50:19.003Z,16.60
2024-02-03T03:56:22.423Z,14.73
2024-02-03T04:02:24.891Z,12.57
2024-02-03T04:08:27.407Z,15.13
2024-02-03T04:14:29.814Z,14.80
2024-02-03T04:20:33.347Z,17.27
2024-02-03T04:26:41.798Z,16.43
2024-02-03T04:32:44.287Z,15.53
2024-02-03T04:38:46.717Z,15.40
2024-02-03T04:44:49.124Z,17.70
2024-02-03T04:50:52.645Z,13.53
2024-02-03T04:56:55.044Z,13.17
2024-02-03T05:03:00.851Z,14.10
2024-02-03T05:09:07.002Z,13.57
2024-02-03T05:15:10.502Z,15.33
2024-02-03T05:21:13.029Z,14.03
2024-02-03T05:27:15.424Z,11.90
2024-02-03T05:33:25.230Z,12.28
2024-02-03T05:39:33.465Z,19.63
2024-02-03T05:45:36.936Z,14.70
2024-02-03T05:51:39.365Z,13.10
2024-02-03T05:57:51.447Z,10.63
2024-02-03T06:03:56.380Z,14.30
2024-02-03T06:09:58.848Z,12.40
2024-02-03T06:16:02.239Z,11.13
2024-02-03T06:22:07.730Z,18.23
2024-02-03T06:28:12.204Z,30.90
2024-02-03T06:34:20.556Z,36.70
2024-02-03T06:40:29.566Z,28.33
2024-02-03T06:46:31.678Z,15.27
2024-02-03T06:52:40.173Z,13.00
2024-02-03T06:58:42.333Z,15.97
2024-02-03T07:04:48.177Z,15.67
2024-02-03T07:10:50.631Z,14.87
2024-02-03T07:16:53.058Z,12.50
2024-02-03T07:22:55.652Z,14.07
2024-02-03T07:29:01.995Z,12.67
2024-02-03T07:35:08.594Z,12.60
2024-02-03T07:41:11.190Z,10.60
2024-02-03T07:47:16.422Z,16.37
2024-02-03T07:53:18.621Z,15.40
2024-02-03T07:59:28.889Z,9.40
2024-02-03T08:05:31.923Z,10.40
2024-02-03T08:11:37.343Z,6.77
2024-02-03T08:17:41.836Z,9.17
2024-02-03T08:23:47.016Z,5.00
2024-02-03T08:29:49.969Z,79.23
2024-02-03T08:35:52.668Z,13.03
2024-02-03T08:41:57.679Z,9.97
2024-02-03T08:48:03.294Z,8.20
2024-02-03T08:54:06.780Z,8.10
2024-02-03T09:00:16.236Z,6.63
2024-02-03T09:06:22.865Z,11.27
2024-02-03T09:12:29.118Z,8.23
2024-02-03T09:18:34.754Z,8.17
2024-02-03T09:24:37.115Z,7.30
2024-02-03T09:30:39.526Z,7.00
2024-02-03T09:42:51.552Z,10.23
2024-02-03T09:48:57.219Z,7.70
2024-02-03T09:55:00.493Z,7.97
2024-02-03T10:01:02.895Z,8.80
2024-02-03T10:07:05.389Z,10.03
2024-02-03T10:13:17.824Z,13.97
2024-02-03T10:19:23.371Z,4.93
2024-02-03T10:25:36.158Z,30.60
2024-02-03T10:31:51.361Z,14.67
2024-02-03T10:37:53.723Z,11.00
2024-02-03T10:44:03.281Z,15.23
2024-02-03T10:50:11.794Z,4.10
2024-02-03T10:56:22.108Z,5.37
2024-02-03T11:02:29.696Z,4.60
2024-02-03T11:08:35.334Z,5.60
2024-02-03T11:14:40.661Z,2.67
2024-02-03T11:20:43.110Z,4.13
2024-02-03T11:27:06.652Z,5.23
2024-02-03T11:33:10.207Z,3.20
2024-02-03T11:39:16.656Z,4.70
2024-02-03T11:45:26.161Z,5.70
2024-02-03T11:51:29.595Z,3.63
2024-02-03T11:57:32.038Z,6.13
2024-02-03T12:03:35.532Z,4.70
2024-02-03T12:09:38.058Z,5.80
2024-02-03T12:15:40.438Z,4.87
2024-02-03T12:21:43.067Z,1.63
2024-02-03T12:27:46.489Z,2.90
2024-02-03T12:33:51.867Z,2.30
2024-02-03T12:39:54.410Z,1.97
2024-02-03T12:46:01.882Z,2.40
2024-02-03T12:52:10.249Z,1.83
2024-02-03T12:58:12.723Z,1.57
2024-02-03T13:04:25.710Z,3.43
2024-02-03T13:10:31.785Z,4.53
2024-02-03T13:16:36.223Z,7.03
2024-02-03T13:22:40.725Z,3.93
2024-02-03T13:28:47.756Z,3.53
2024-02-03T13:35:01.899Z,6.10
2024-02-03T13:41:05.271Z,9.43
2024-02-03T13:47:07.619Z,2.67
2024-02-03T13:53:11.116Z,6.63
2024-02-03T13:59:13.529Z,5.13
2024-02-03T14:05:21.463Z,3.60
2024-02-03T14:11:41.344Z,12.97
2024-02-03T14:17:52.111Z,3.13
2024-02-03T14:23:54.487Z,14.53
2024-02-03T14:30:01.079Z,9.27
2024-02-03T14:36:03.482Z,9.87
2024-02-03T14:42:06.927Z,24.13
2024-02-03T14:48:09.390Z,39.93
2024-02-03T14:54:16.869Z,24.80
2024-02-03T15:00:27.352Z,7.50
2024-02-03T15:06:30.849Z,14.40
2024-02-03T15:12:36.290Z,5.83
2024-02-03T15:18:50.180Z,2.67
2024-02-03T15:24:53.292Z,1.93
2024-02-03T15:30:55.778Z,2.47
2024-02-03T15:37:05.648Z,6.93
2024-02-03T15:43:10.702Z,2.63
2024-02-03T15:49:13.255Z,2.17
2024-02-03T15:55:15.785Z,3.03
2024-02-03T16:01:26.220Z,6.37
2024-02-03T16:07:28.591Z,3.47
2024-02-03T16:13:30.961Z,2.90
2024-02-03T16:19:33.558Z,2.20
2024-02-03T16:25:36.952Z,2.07
2024-02-03T16:31:40.087Z,1.93
2024-02-03T16:37:42.828Z,3.93
2024-02-03T16:43:46.289Z,32.27
2024-02-03T16:49:51.915Z,10.30
2024-02-03T16:55:54.309Z,14.20
2024-02-03T17:01:59.927Z,28.93
2024-02-03T17:08:05.275Z,13.13
2024-02-03T17:14:16.782Z,6.97
2024-02-03T17:20:19.184Z,4.03
2024-02-03T17:26:21.662Z,3.13
2024-02-03T17:32:26.214Z,5.40
2024-02-03T17:38:31.640Z,2.50
2024-02-03T17:44:35.097Z,5.17
2024-02-03T17:50:37.514Z,3.47
2024-02-03T17:56:40.005Z,2.13
2024-02-03T18:02:44.157Z,2.43
2024-02-03T18:08:46.977Z,5.20
2024-02-03T18:14:49.400Z,2.07
2024-02-03T18:20:51.891Z,2.57
2024-02-03T18:26:55.344Z,2.60
2024-02-03T18:32:57.912Z,1.37
2024-02-03T18:39:00.274Z,2.80
2024-02-03T18:45:02.744Z,2.77
2024-02-03T18:51:05.235Z,5.83
2024-02-03T18:57:11.565Z,9.87
2024-02-03T19:03:13.597Z,12.77
2024-02-03T19:09:21.029Z,6.03
2024-02-03T19:15:24.211Z,5.43
2024-02-03T19:21:26.648Z,8.73
2024-02-03T19:27:30.089Z,6.73
2024-02-03T19:33:32.611Z,12.00
2024-02-03T19:39:34.920Z,7.10
2024-02-03T19:45:40.462Z,7.17
2024-02-03T19:51:45.941Z,6.97
2024-02-03T19:57:49.084Z,6.60
2024-02-03T20:03:53.841Z,6.10
2024-02-03T20:09:56.447Z,5.00
2024-02-03T20:15:58.869Z,0.63
2024-02-03T20:22:05.289Z,0.57
2024-02-03T20:28:07.796Z,0.97
2024-02-03T20:34:18.518Z,1.23
2024-02-03T20:40:20.818Z,3.17
2024-02-03T20:46:23.413Z,1.37
2024-02-03T20:52:25.705Z,0.73
2024-02-03T20:58:28.246Z,1.13
2024-02-03T21:04:30.733Z,4.37
2024-02-03T21:10:34.372Z,3.23
2024-02-03T21:16:37.650Z,2.03
2024-02-03T21:22:40.153Z,1.63
2024-02-03T21:28:42.515Z,1.10
2024-02-03T21:34:46.003Z,0.73
2024-02-03T21:40:48.446Z,0.70
2024-02-03T21:46:52.104Z,0.73
2024-02-03T21:52:56.319Z,0.97
2024-02-03T21:59:01.228Z,1.10
2024-02-03T22:05:04.315Z,0.67
2024-02-03T22:11:06.478Z,0.40
2024-02-03T22:17:09.192Z,2.37
2024-02-03T22:23:11.647Z,2.37
2024-02-03T22:29:19.936Z,1.60
2024-02-03T22:35:34.644Z,4.03
2024-02-03T22:41:37.106Z,1.23
2024-02-03T22:47:39.707Z,1.00
2024-02-03T22:53:41.981Z,0.97
2024-02-03T22:59:47.539Z,0.80
2024-02-03T23:05:50.083Z,1.00
2024-02-03T23:11:53.478Z,2.20
2024-02-03T23:17:58.154Z,1.30
2024-02-03T23:24:01.402Z,1.43
2024-02-03T23:30:05.903Z,1.63
2024-02-03T23:36:10.420Z,2.20
2024-02-03T23:42:12.862Z,1.90
2024-02-03T23:48:18.367Z,1.27
2024-02-03T23:54:20.847Z,1.17
